Carly Michelle — WDF5185 — position and weather

sailwx.info

Track history (hours):
 
Tides and Currents Weather Stations Pressure Air Temp Water Temp Dewpoint Dewpoint Depression Visibility Wind Speed Wind Dir Waves Ship Positions

Carly Michelle

Owner: Gulf South Ocean Towing, LLC, Cut Off, LA. More information available from US FCC via Universal Licensing System and Coast Guard Vessel Documentation Center.

Last reported at 2017-Dec-17 07:30 UTC. Time now 2017-Dec-17 15:51 UTC.
Position N 29°33' W 090°28'.

Length 34 m; draft 4.2 m.

Type: Towing. MMSI: 367460370.

Date/timePositionNaut miles runAvg speedWind from/ knotsBaromVisibWave heightAir tempDewpointWater temp
2017-Dec-17 07:30N 29°33' W 090°28'4 7.8
2017-Dec-17 07:00N 29°34' W 090°32'4 7.5
2017-Dec-17 06:30N 29°35' W 090°36'3 6.1
2017-Dec-17 06:01N 29°36' W 090°40'3 5.3
2017-Dec-17 05:30N 29°36' W 090°43'2 4.3
2017-Dec-17 05:00N 29°34' W 090°43'3 6.1
2017-Dec-17 04:31N 29°32' W 090°46'214 7.1
2017-Dec-15 22:11N 29°30' W 094°52'2 8.0
2017-Dec-15 21:58N 29°31' W 094°53'4 7.8
2017-Dec-15 21:30N 29°34' W 094°56'4 7.9
2017-Dec-15 21:00N 29°38' W 094°58'4 7.7
2017-Dec-15 20:30N 29°41' W 094°59'4 7.1
2017-Dec-15 19:59N 29°44' W 095°03'0 1.0
2017-Dec-15 19:30N 29°44' W 095°03'2 4.2
2017-Dec-15 19:00N 29°43' W 095°01'3 5.2
2017-Dec-15 18:30N 29°41' W 094°59'2 4.5
2017-Dec-15 18:00N 29°39' W 094°58'4 7.1
2017-Dec-15 17:30N 29°36' W 094°57'84 6.1
2017-Dec-15 03:42N 29°44' W 093°21'7 6.3
2017-Dec-15 02:30N 29°51' W 093°21'11 7.4
2017-Dec-15 01:00N 30°02' W 093°20'4 7.5
2017-Dec-15 00:30N 30°06' W 093°20'2 0.3
2017-Dec-14 18:28N 30°08' W 093°19'0 0.0
2017-Dec-14 18:00N 30°08' W 093°19'0 0.0
2017-Dec-14 17:30N 30°08' W 093°19'0 0.0
2017-Dec-14 17:00N 30°08' W 093°19'0 0.0
2017-Dec-14 16:30N 30°08' W 093°19'0 0.2
2017-Dec-14 16:00N 30°08' W 093°19'0 0.0
2017-Dec-14 14:59N 30°08' W 093°19'0 0.0
2017-Dec-14 14:25N 30°08' W 093°19'0 0.0
2017-Dec-14 14:00N 30°08' W 093°19'0 0.0
2017-Dec-14 13:29N 30°08' W 093°19'0 0.0
2017-Dec-14 13:00N 30°08' W 093°19'1 2.0
2017-Dec-14 12:30N 30°07' W 093°20'2 3.7
2017-Dec-14 12:00N 30°05' W 093°20'2 4.0
2017-Dec-14 11:30N 30°03' W 093°20'2 4.4
2017-Dec-14 11:00N 30°01' W 093°20'2 4.6
2017-Dec-14 10:30N 29°59' W 093°20'3 4.9
2017-Dec-14 09:58N 29°56' W 093°20'2 4.8
2017-Dec-14 09:30N 29°54' W 093°21'3 5.1
2017-Dec-14 08:59N 29°51' W 093°21'82 2.9
2017-Dec-13 04:22N 29°30' W 094°52'3 7.8
2017-Dec-13 04:00N 29°32' W 094°54'4 7.7
2017-Dec-13 03:30N 29°35' W 094°56'4 7.6
2017-Dec-13 03:00N 29°39' W 094°58'4 7.1
2017-Dec-13 02:30N 29°42' W 094°60'3 5.6
2017-Dec-13 02:00N 29°44' W 095°02'3 1.5
2017-Dec-12 23:45N 29°46' W 095°05'1 3.9
2017-Dec-12 23:30N 29°45' W 095°04'3 6.4
2017-Dec-12 22:58N 29°43' W 095°01'4 8.2
2017-Dec-12 22:30N 29°40' W 094°59'5 9.4
2017-Dec-12 22:00N 29°36' W 094°57'206 5.0
2017-Dec-11 04:37N 29°37' W 090°60'1 8.4
2017-Dec-11 04:30N 29°37' W 090°59'4 8.3
2017-Dec-11 04:00N 29°34' W 090°56'4 8.6
2017-Dec-11 03:30N 29°32' W 090°51'4 8.7
2017-Dec-11 03:00N 29°32' W 090°46'3 6.3
2017-Dec-11 02:30N 29°34' W 090°43'1 2.0
2017-Dec-11 02:00N 29°34' W 090°42'0 0.0
2017-Dec-11 01:30N 29°34' W 090°42'0 0.0
2017-Dec-11 01:00N 29°34' W 090°42'0 1.0
2017-Dec-11 00:30N 29°33' W 090°42'2 4.4
2017-Dec-11 00:00N 29°31' W 090°43'2 4.9
2017-Dec-10 23:30N 29°29' W 090°43'18 1.3
2017-Dec-10 09:34N 29°11' W 090°37'0 6.4
2017-Dec-10 09:30N 29°12' W 090°37'4 6.3
2017-Dec-10 08:56N 29°14' W 090°40'3 7.0
2017-Dec-10 08:30N 29°16' W 090°42'4 7.1
2017-Dec-10 07:57N 29°20' W 090°44'3 6.6
2017-Dec-10 07:30N 29°23' W 090°44'4 7.8
2017-Dec-10 07:00N 29°27' W 090°43'4 7.8
2017-Dec-10 06:30N 29°31' W 090°43'2 4.0
2017-Dec-10 06:00N 29°33' W 090°42'0 0.0
2017-Dec-10 05:30N 29°33' W 090°42'0 0.0
2017-Dec-10 05:00N 29°33' W 090°42'0 0.0
2017-Dec-10 04:30N 29°33' W 090°42'0 0.0
2017-Dec-10 04:00N 29°33' W 090°42'0 0.0
2017-Dec-10 03:30N 29°33' W 090°42'0 0.0
2017-Dec-10 03:00N 29°33' W 090°42'0 0.0
2017-Dec-10 02:30N 29°33' W 090°42'0 0.0
2017-Dec-10 02:00N 29°33' W 090°42'0 0.0
2017-Dec-10 01:30N 29°33' W 090°42'0 0.0
2017-Dec-10 01:00N 29°33' W 090°42'0 0.0
2017-Dec-10 00:30N 29°33' W 090°42'0 0.0
2017-Dec-10 00:00N 29°33' W 090°42'0 0.0
2017-Dec-09 23:30N 29°33' W 090°42'0 0.0
2017-Dec-09 23:00N 29°33' W 090°42'0 0.0
2017-Dec-09 22:30N 29°33' W 090°42'0 0.0
2017-Dec-09 22:00N 29°33' W 090°42'0 0.0
2017-Dec-09 21:30N 29°33' W 090°42'0 0.0
2017-Dec-09 21:00N 29°33' W 090°42'0 0.0
2017-Dec-09 20:30N 29°33' W 090°42'0 0.0
2017-Dec-09 20:00N 29°33' W 090°42'0 0.0
2017-Dec-09 19:30N 29°33' W 090°42'0 0.0
2017-Dec-09 19:00N 29°33' W 090°42'0 0.0
2017-Dec-09 18:30N 29°33' W 090°42'0 0.0
2017-Dec-09 18:00N 29°33' W 090°42'0 0.0
2017-Dec-09 17:30N 29°33' W 090°42'0 0.0
2017-Dec-09 17:00N 29°33' W 090°42'0 0.0
2017-Dec-09 16:30N 29°33' W 090°42'0 0.0
2017-Dec-09 16:00N 29°33' W 090°42'0 0.0
2017-Dec-09 15:30N 29°33' W 090°42'0 0.0
2017-Dec-09 15:00N 29°33' W 090°42'0 0.0
2017-Dec-09 14:30N 29°33' W 090°42'0 0.0
2017-Dec-09 14:00N 29°33' W 090°42'0 0.0
2017-Dec-09 13:30N 29°33' W 090°42'0 0.0
2017-Dec-09 13:00N 29°33' W 090°42'0 0.0
2017-Dec-09 12:30N 29°33' W 090°42'0 0.0
2017-Dec-09 12:00N 29°33' W 090°42'0 0.0
2017-Dec-09 11:30N 29°33' W 090°42'0 0.0
2017-Dec-09 11:00N 29°33' W 090°42'0 0.0
2017-Dec-09 10:30N 29°33' W 090°42'0 0.0
2017-Dec-09 10:00N 29°33' W 090°42'0 0.0
2017-Dec-09 09:30N 29°33' W 090°42'0 0.0
2017-Dec-09 09:00N 29°33' W 090°42'0 0.5
2017-Dec-09 08:30N 29°33' W 090°42'1 2.8
2017-Dec-09 08:00N 29°34' W 090°43'1 2.2
2017-Dec-09 07:30N 29°34' W 090°44'2 5.0
2017-Dec-09 07:00N 29°32' W 090°46'3 5.6
2017-Dec-09 06:30N 29°32' W 090°49'  
Track history (hours):
 
Tides and Currents Weather Stations Pressure Air Temp Water Temp Dewpoint Dewpoint Depression Visibility Wind Speed Wind Dir Waves Ship Positions

Carly Michelle

Owner: Gulf South Ocean Towing, LLC, Cut Off, LA. More information available from US FCC via Universal Licensing System and Coast Guard Vessel Documentation Center.

Last reported at 2017-Dec-17 07:30 UTC. Time now 2017-Dec-17 15:52 UTC.
Position N 29°33' W 090°28'.

Length 34 m; draft 4.2 m.

Type: Towing. MMSI: 367460370.

Date/timePositionNaut miles runAvg speedWind from/ knotsBaromVisibWave heightAir tempDewpointWater temp
2017-Dec-17 07:30N 29°33' W 090°28'4 7.8
2017-Dec-17 07:00N 29°34' W 090°32'4 7.5
2017-Dec-17 06:30N 29°35' W 090°36'3 6.1
2017-Dec-17 06:01N 29°36' W 090°40'3 5.3
2017-Dec-17 05:30N 29°36' W 090°43'2 4.3
2017-Dec-17 05:00N 29°34' W 090°43'3 6.1
2017-Dec-17 04:31N 29°32' W 090°46'214 7.1
2017-Dec-15 22:11N 29°30' W 094°52'2 8.0
2017-Dec-15 21:58N 29°31' W 094°53'4 7.8
2017-Dec-15 21:30N 29°34' W 094°56'4 7.9
2017-Dec-15 21:00N 29°38' W 094°58'4 7.7
2017-Dec-15 20:30N 29°41' W 094°59'4 7.1
2017-Dec-15 19:59N 29°44' W 095°03'0 1.0
2017-Dec-15 19:30N 29°44' W 095°03'2 4.2
2017-Dec-15 19:00N 29°43' W 095°01'3 5.2
2017-Dec-15 18:30N 29°41' W 094°59'2 4.5
2017-Dec-15 18:00N 29°39' W 094°58'4 7.1
2017-Dec-15 17:30N 29°36' W 094°57'84 6.1
2017-Dec-15 03:42N 29°44' W 093°21'7 6.3
2017-Dec-15 02:30N 29°51' W 093°21'11 7.4
2017-Dec-15 01:00N 30°02' W 093°20'4 7.5
2017-Dec-15 00:30N 30°06' W 093°20'2 0.3
2017-Dec-14 18:28N 30°08' W 093°19'0 0.0
2017-Dec-14 18:00N 30°08' W 093°19'0 0.0
2017-Dec-14 17:30N 30°08' W 093°19'0 0.0
2017-Dec-14 17:00N 30°08' W 093°19'0 0.0
2017-Dec-14 16:30N 30°08' W 093°19'0 0.2
2017-Dec-14 16:00N 30°08' W 093°19'0 0.0
2017-Dec-14 14:59N 30°08' W 093°19'0 0.0
2017-Dec-14 14:25N 30°08' W 093°19'0 0.0
2017-Dec-14 14:00N 30°08' W 093°19'0 0.0
2017-Dec-14 13:29N 30°08' W 093°19'0 0.0
2017-Dec-14 13:00N 30°08' W 093°19'1 2.0
2017-Dec-14 12:30N 30°07' W 093°20'2 3.7
2017-Dec-14 12:00N 30°05' W 093°20'2 4.0
2017-Dec-14 11:30N 30°03' W 093°20'2 4.4
2017-Dec-14 11:00N 30°01' W 093°20'2 4.6
2017-Dec-14 10:30N 29°59' W 093°20'3 4.9
2017-Dec-14 09:58N 29°56' W 093°20'2 4.8
2017-Dec-14 09:30N 29°54' W 093°21'3 5.1
2017-Dec-14 08:59N 29°51' W 093°21'82 2.9
2017-Dec-13 04:22N 29°30' W 094°52'3 7.8
2017-Dec-13 04:00N 29°32' W 094°54'4 7.7
2017-Dec-13 03:30N 29°35' W 094°56'4 7.6
2017-Dec-13 03:00N 29°39' W 094°58'4 7.1
2017-Dec-13 02:30N 29°42' W 094°60'3 5.6
2017-Dec-13 02:00N 29°44' W 095°02'3 1.5
2017-Dec-12 23:45N 29°46' W 095°05'1 3.9
2017-Dec-12 23:30N 29°45' W 095°04'3 6.4
2017-Dec-12 22:58N 29°43' W 095°01'4 8.2
2017-Dec-12 22:30N 29°40' W 094°59'5 9.4
2017-Dec-12 22:00N 29°36' W 094°57'206 5.0
2017-Dec-11 04:37N 29°37' W 090°60'1 8.4
2017-Dec-11 04:30N 29°37' W 090°59'4 8.3
2017-Dec-11 04:00N 29°34' W 090°56'4 8.6
2017-Dec-11 03:30N 29°32' W 090°51'4 8.7
2017-Dec-11 03:00N 29°32' W 090°46'3 6.3
2017-Dec-11 02:30N 29°34' W 090°43'1 2.0
2017-Dec-11 02:00N 29°34' W 090°42'0 0.0
2017-Dec-11 01:30N 29°34' W 090°42'0 0.0
2017-Dec-11 01:00N 29°34' W 090°42'0 1.0
2017-Dec-11 00:30N 29°33' W 090°42'2 4.4
2017-Dec-11 00:00N 29°31' W 090°43'2 4.9
2017-Dec-10 23:30N 29°29' W 090°43'18 1.3
2017-Dec-10 09:34N 29°11' W 090°37'0 6.4
2017-Dec-10 09:30N 29°12' W 090°37'4 6.3
2017-Dec-10 08:56N 29°14' W 090°40'3 7.0
2017-Dec-10 08:30N 29°16' W 090°42'4 7.1
2017-Dec-10 07:57N 29°20' W 090°44'3 6.6
2017-Dec-10 07:30N 29°23' W 090°44'4 7.8
2017-Dec-10 07:00N 29°27' W 090°43'4 7.8
2017-Dec-10 06:30N 29°31' W 090°43'2 4.0
2017-Dec-10 06:00N 29°33' W 090°42'0 0.0
2017-Dec-10 05:30N 29°33' W 090°42'0 0.0
2017-Dec-10 05:00N 29°33' W 090°42'0 0.0
2017-Dec-10 04:30N 29°33' W 090°42'0 0.0
2017-Dec-10 04:00N 29°33' W 090°42'0 0.0
2017-Dec-10 03:30N 29°33' W 090°42'0 0.0
2017-Dec-10 03:00N 29°33' W 090°42'0 0.0
2017-Dec-10 02:30N 29°33' W 090°42'0 0.0
2017-Dec-10 02:00N 29°33' W 090°42'0 0.0
2017-Dec-10 01:30N 29°33' W 090°42'0 0.0
2017-Dec-10 01:00N 29°33' W 090°42'0 0.0
2017-Dec-10 00:30N 29°33' W 090°42'0 0.0
2017-Dec-10 00:00N 29°33' W 090°42'0 0.0
2017-Dec-09 23:30N 29°33' W 090°42'0 0.0
2017-Dec-09 23:00N 29°33' W 090°42'0 0.0
2017-Dec-09 22:30N 29°33' W 090°42'0 0.0
2017-Dec-09 22:00N 29°33' W 090°42'0 0.0
2017-Dec-09 21:30N 29°33' W 090°42'0 0.0
2017-Dec-09 21:00N 29°33' W 090°42'0 0.0
2017-Dec-09 20:30N 29°33' W 090°42'0 0.0
2017-Dec-09 20:00N 29°33' W 090°42'0 0.0
2017-Dec-09 19:30N 29°33' W 090°42'0 0.0
2017-Dec-09 19:00N 29°33' W 090°42'0 0.0
2017-Dec-09 18:30N 29°33' W 090°42'0 0.0
2017-Dec-09 18:00N 29°33' W 090°42'0 0.0
2017-Dec-09 17:30N 29°33' W 090°42'0 0.0
2017-Dec-09 17:00N 29°33' W 090°42'0 0.0
2017-Dec-09 16:30N 29°33' W 090°42'0 0.0
2017-Dec-09 16:00N 29°33' W 090°42'0 0.0
2017-Dec-09 15:30N 29°33' W 090°42'0 0.0
2017-Dec-09 15:00N 29°33' W 090°42'0 0.0
2017-Dec-09 14:30N 29°33' W 090°42'0 0.0
2017-Dec-09 14:00N 29°33' W 090°42'0 0.0
2017-Dec-09 13:30N 29°33' W 090°42'0 0.0
2017-Dec-09 13:00N 29°33' W 090°42'0 0.0
2017-Dec-09 12:30N 29°33' W 090°42'0 0.0
2017-Dec-09 12:00N 29°33' W 090°42'0 0.0
2017-Dec-09 11:30N 29°33' W 090°42'0 0.0
2017-Dec-09 11:00N 29°33' W 090°42'0 0.0
2017-Dec-09 10:30N 29°33' W 090°42'0 0.0
2017-Dec-09 10:00N 29°33' W 090°42'0 0.0
2017-Dec-09 09:30N 29°33' W 090°42'0 0.0
2017-Dec-09 09:00N 29°33' W 090°42'0 0.5
2017-Dec-09 08:30N 29°33' W 090°42'1 2.8
2017-Dec-09 08:00N 29°34' W 090°43'1 2.2
2017-Dec-09 07:30N 29°34' W 090°44'2 5.0
2017-Dec-09 07:00N 29°32' W 090°46'3 5.6
2017-Dec-09 06:30N 29°32' W 090°49'  

Dump ship's entire track history